Time;durP1;ratioP1;P1;durP2;ratioP2;P2;SDS_P1;SDS_P2;PMS_P1;PMS_P2;Temp;Humidity;BMP_temperature;BMP_pressure;BME280_temperature;BME280_humidity;BME280_pressure;Samples;Min_cycle;Max_cycle;Signal;HPM_P1;HPM_P2
2022/07/23 00:00:09;;;;;;;6.72;6.20;;;26.60;53.70;;;;;;4960535;28;20201;-75
2022/07/23 00:02:36;;;;;;;6.10;5.60;;;26.60;53.70;;;;;;4960980;28;20229;-74
2022/07/23 00:05:03;;;;;;;6.65;6.05;;;26.60;53.60;;;;;;4961605;28;20288;-74
2022/07/23 00:07:32;;;;;;;6.30;5.80;;;26.60;53.60;;;;;;4960657;28;20233;-74
2022/07/23 00:09:59;;;;;;;5.85;5.43;;;26.50;53.30;;;;;;4961592;28;20218;-74
2022/07/23 00:12:27;;;;;;;6.40;5.95;;;26.50;53.50;;;;;;4961174;28;20202;-76
2022/07/23 00:14:54;;;;;;;6.20;5.70;;;26.50;53.50;;;;;;4961217;28;20202;-75
2022/07/23 00:17:21;;;;;;;5.88;5.47;;;26.50;53.60;;;;;;4961553;28;20201;-75
2022/07/23 00:19:48;;;;;;;6.10;5.60;;;26.50;53.50;;;;;;4961176;28;20235;-74
2022/07/23 00:22:15;;;;;;;6.30;5.80;;;26.50;53.60;;;;;;4961545;28;20293;-74
2022/07/23 00:24:44;;;;;;;5.93;5.50;;;26.50;53.60;;;;;;4963586;28;20260;-74
2022/07/23 00:27:11;;;;;;;6.32;5.82;;;26.50;53.60;;;;;;4963681;28;20198;-76
2022/07/23 00:29:38;;;;;;;5.78;5.28;;;26.50;53.60;;;;;;4961348;28;20232;-75
2022/07/23 00:32:06;;;;;;;5.95;5.40;;;26.50;53.50;;;;;;4961306;28;20238;-74
2022/07/23 00:34:33;;;;;;;5.65;5.25;;;26.50;53.40;;;;;;4961105;28;20222;-75
2022/07/23 00:37:00;;;;;;;5.90;5.50;;;26.50;53.50;;;;;;4961989;28;20554;-73
2022/07/23 00:39:26;;;;;;;5.75;5.30;;;26.40;53.40;;;;;;4962639;28;20284;-74
2022/07/23 00:41:55;;;;;;;5.78;5.20;;;26.50;53.40;;;;;;4961528;28;20228;-74
2022/07/23 00:44:23;;;;;;;5.72;5.22;;;26.50;53.30;;;;;;4960996;28;20213;-75
2022/07/23 00:46:52;;;;;;;5.95;5.40;;;26.50;53.30;;;;;;4961808;28;20205;-74
2022/07/23 00:49:20;;;;;;;5.45;5.05;;;26.50;53.20;;;;;;4960460;28;20256;-76
2022/07/23 00:51:47;;;;;;;5.55;5.15;;;26.50;53.10;;;;;;4960364;28;20627;-74
2022/07/23 00:54:15;;;;;;;5.55;5.15;;;26.50;53.00;;;;;;4960563;28;20228;-76
2022/07/23 00:56:42;;;;;;;5.60;5.10;;;26.50;52.90;;;;;;4944559;28;20212;-74
2022/07/23 00:59:11;;;;;;;5.43;5.03;;;26.50;52.90;;;;;;4960709;28;20301;-74
2022/07/23 01:01:38;;;;;;;5.68;5.18;;;26.50;52.90;;;;;;4959882;28;20202;-74
2022/07/23 01:04:05;;;;;;;5.10;4.80;;;26.50;52.90;;;;;;4959663;28;20703;-75
2022/07/23 01:06:34;;;;;;;5.18;4.78;;;26.50;52.70;;;;;;4958334;28;20200;-75
2022/07/23 01:09:01;;;;;;;5.63;5.22;;;26.50;52.80;;;;;;4959147;28;20198;-75
2022/07/23 01:11:28;;;;;;;5.60;5.13;;;26.50;52.80;;;;;;4978447;28;20219;-76
2022/07/23 01:13:55;;;;;;;4.82;4.53;;;26.50;52.70;;;;;;4961485;28;20213;-74
2022/07/23 01:16:24;;;;;;;5.40;5.00;;;26.50;52.70;;;;;;4962302;28;20648;-74
2022/07/23 01:18:51;;;;;;;5.10;4.70;;;26.50;52.70;;;;;;4945596;28;20298;-74
2022/07/23 01:21:18;;;;;;;5.00;4.60;;;26.50;52.70;;;;;;4961771;28;20240;-76
2022/07/23 01:23:47;;;;;;;5.32;4.82;;;26.50;52.70;;;;;;4962880;28;20217;-74
2022/07/23 01:26:16;;;;;;;4.90;4.50;;;26.40;52.60;;;;;;4947052;28;20309;-76
2022/07/23 01:28:44;;;;;;;4.57;4.28;;;26.40;52.60;;;;;;4962953;28;20373;-76
2022/07/23 01:31:12;;;;;;;4.75;4.40;;;26.40;52.60;;;;;;4962774;28;20309;-74
2022/07/23 01:33:39;;;;;;;4.53;4.22;;;26.40;52.60;;;;;;4962773;28;20217;-76
2022/07/23 01:36:07;;;;;;;4.45;4.15;;;26.40;52.60;;;;;;4946967;28;20577;-74
2022/07/23 01:38:34;;;;;;;4.57;4.28;;;26.40;52.60;;;;;;4962603;28;20209;-75
2022/07/23 01:41:02;;;;;;;4.50;4.10;;;26.40;52.50;;;;;;4962835;28;20726;-73
2022/07/23 01:43:31;;;;;;;4.90;4.50;;;26.40;52.50;;;;;;4962794;28;20217;-76
2022/07/23 01:45:59;;;;;;;4.38;4.07;;;26.30;52.40;;;;;;4962645;28;20214;-76
2022/07/23 01:48:30;;;;;;;4.40;4.10;;;26.30;52.40;;;;;;4963078;28;20375;-74
2022/07/23 01:51:16;;;;;;;4.63;4.22;;;26.30;52.40;;;;;;4963409;28;20240;-74
2022/07/23 01:53:48;;;;;;;4.68;4.38;;;26.30;52.30;;;;;;4962939;28;20272;-76
2022/07/23 01:56:16;;;;;;;4.47;4.10;;;26.30;52.00;;;;;;4946835;28;20253;-75
2022/07/23 01:58:43;;;;;;;4.35;3.95;;;26.30;52.30;;;;;;4962647;28;20565;-75
2022/07/23 02:01:11;;;;;;;4.22;3.92;;;26.30;52.30;;;;;;4963474;28;20198;-74
2022/07/23 02:03:38;;;;;;;4.55;4.15;;;26.30;52.30;;;;;;4947489;28;20318;-74
2022/07/23 02:06:06;;;;;;;4.25;3.95;;;26.30;52.40;;;;;;4962910;28;20209;-75
2022/07/23 02:08:33;;;;;;;4.40;4.10;;;26.30;52.20;;;;;;4963656;28;20249;-74
2022/07/23 02:11:02;;;;;;;4.20;3.90;;;26.30;52.30;;;;;;4963335;28;20288;-74
2022/07/23 02:13:30;;;;;;;4.35;3.95;;;26.20;52.30;;;;;;4964563;28;20256;-75
2022/07/23 02:15:57;;;;;;;4.28;3.88;;;26.30;52.30;;;;;;4964050;28;20190;-74
2022/07/23 02:18:24;;;;;;;3.72;3.47;;;26.30;52.40;;;;;;4965727;28;20201;-74
2022/07/23 02:20:52;;;;;;;3.80;3.60;;;26.20;52.40;;;;;;4963847;28;20200;-74
2022/07/23 02:23:19;;;;;;;4.43;4.05;;;26.20;52.40;;;;;;4947486;28;20218;-75
2022/07/23 02:25:46;;;;;;;4.25;3.95;;;26.20;52.30;;;;;;4963101;28;20205;-74
2022/07/23 02:28:14;;;;;;;4.20;3.90;;;26.20;52.30;;;;;;4962834;28;20225;-74
2022/07/23 02:30:43;;;;;;;4.00;3.70;;;26.20;52.50;;;;;;4962915;28;20228;-74
2022/07/23 02:33:11;;;;;;;3.97;3.67;;;26.20;52.60;;;;;;4962546;28;20226;-75
2022/07/23 02:35:40;;;;;;;3.92;3.63;;;26.20;52.50;;;;;;4961916;28;20206;-74
2022/07/23 02:38:08;;;;;;;4.15;3.85;;;26.20;52.50;;;;;;4962700;28;20530;-76
2022/07/23 02:40:36;;;;;;;4.13;3.83;;;26.20;52.60;;;;;;4946333;28;20593;-76
2022/07/23 02:43:03;;;;;;;3.70;3.40;;;26.10;52.50;;;;;;4961682;28;20221;-74
2022/07/23 02:45:30;;;;;;;3.80;3.50;;;26.10;52.60;;;;;;4946005;28;20208;-74
2022/07/23 02:47:59;;;;;;;3.95;3.65;;;26.10;52.50;;;;;;4961321;28;20213;-74
2022/07/23 02:50:27;;;;;;;3.97;3.60;;;26.10;52.50;;;;;;4961798;28;20204;-75
2022/07/23 02:52:56;;;;;;;3.88;3.58;;;26.10;52.50;;;;;;4946386;28;20225;-74
2022/07/23 02:55:25;;;;;;;3.83;3.55;;;26.10;52.50;;;;;;4961631;28;20198;-74
2022/07/23 02:57:53;;;;;;;3.78;3.47;;;26.10;52.60;;;;;;4961411;28;20618;-74
2022/07/23 03:00:20;;;;;;;3.72;3.47;;;26.10;52.60;;;;;;4945904;28;20237;-73
2022/07/23 03:02:47;;;;;;;3.90;3.60;;;26.10;52.60;;;;;;4946049;28;20325;-74
2022/07/23 03:05:16;;;;;;;3.38;3.15;;;26.10;52.60;;;;;;4961016;28;20198;-74
2022/07/23 03:07:44;;;;;;;3.58;3.38;;;26.00;52.60;;;;;;4945975;28;20204;-74
2022/07/23 03:10:11;;;;;;;4.10;3.80;;;26.00;52.70;;;;;;4961772;28;20209;-74
2022/07/23 03:12:38;;;;;;;3.80;3.50;;;26.00;52.70;;;;;;4960981;28;20229;-73
2022/07/23 03:15:07;;;;;;;3.95;3.55;;;26.00;52.60;;;;;;4961215;28;20198;-74
2022/07/23 03:17:34;;;;;;;4.03;3.72;;;26.00;52.70;;;;;;4962047;28;20201;-73
2022/07/23 03:20:01;;;;;;;3.70;3.50;;;26.00;52.70;;;;;;4961135;28;20289;-75
2022/07/23 03:22:30;;;;;;;4.22;3.85;;;26.00;52.70;;;;;;4961600;28;20198;-76
2022/07/23 03:24:57;;;;;;;4.00;3.67;;;25.90;52.80;;;;;;4963500;28;20221;-73
2022/07/23 03:27:27;;;;;;;3.83;3.53;;;25.90;52.80;;;;;;4961879;28;20240;-76
2022/07/23 03:29:55;;;;;;;4.03;3.72;;;25.90;53.40;;;;;;4946714;28;20202;-74
2022/07/23 03:32:22;;;;;;;4.20;3.80;;;26.00;52.70;;;;;;4946078;28;20229;-74
2022/07/23 03:34:51;;;;;;;3.90;3.60;;;25.90;52.70;;;;;;4961024;28;20680;-74
2022/07/23 03:37:18;;;;;;;3.88;3.60;;;25.90;52.70;;;;;;4962162;28;20285;-74
2022/07/23 03:39:47;;;;;;;4.00;3.67;;;25.90;52.80;;;;;;4961694;28;20699;-74
2022/07/23 03:42:14;;;;;;;3.90;3.60;;;25.90;52.70;;;;;;4961794;28;20198;-74
2022/07/23 03:44:42;;;;;;;3.83;3.53;;;25.90;52.80;;;;;;4961621;28;20206;-74
2022/07/23 03:47:09;;;;;;;4.25;3.47;;;26.00;52.80;;;;;;4961939;28;20205;-74
2022/07/23 03:49:36;;;;;;;4.07;3.78;;;25.90;52.80;;;;;;4962021;28;20233;-73
2022/07/23 03:52:04;;;;;;;4.20;3.80;;;25.90;52.80;;;;;;4961583;28;20626;-73
2022/07/23 03:54:31;;;;;;;3.90;3.60;;;25.90;52.90;;;;;;4960284;28;20229;-74
2022/07/23 03:56:59;;;;;;;4.07;3.78;;;25.90;53.00;;;;;;4961019;28;20223;-73
2022/07/23 03:59:27;;;;;;;4.03;3.72;;;25.90;53.00;;;;;;4961676;28;20708;-74
2022/07/23 04:01:54;;;;;;;4.05;3.75;;;25.90;52.90;;;;;;4962310;28;20196;-74
2022/07/23 04:04:21;;;;;;;3.90;3.60;;;25.90;53.10;;;;;;4961765;28;20312;-75
2022/07/23 04:06:48;;;;;;;4.05;3.75;;;25.90;53.00;;;;;;4960993;28;20209;-74
2022/07/23 04:09:16;;;;;;;4.15;3.85;;;25.90;53.60;;;;;;4961051;28;20248;-74
2022/07/23 04:11:43;;;;;;;4.05;3.75;;;25.90;53.00;;;;;;4977879;28;20210;-74
2022/07/23 04:14:14;;;;;;;4.60;4.20;;;25.90;53.00;;;;;;4960868;28;20574;-74
2022/07/23 04:16:41;;;;;;;4.13;3.83;;;25.90;53.00;;;;;;4960401;28;20683;-75
2022/07/23 04:19:08;;;;;;;4.15;3.85;;;25.90;53.10;;;;;;4960896;28;20565;-75
2022/07/23 04:21:45;;;;;;;4.00;3.70;;;25.90;53.10;;;;;;4960046;28;20198;-73
2022/07/23 04:24:13;;;;;;;4.45;4.05;;;25.90;53.20;;;;;;4960054;28;20218;-74
2022/07/23 04:26:41;;;;;;;4.13;3.83;;;25.90;53.20;;;;;;4960670;28;20194;-73
2022/07/23 04:29:08;;;;;;;3.85;3.55;;;25.90;53.20;;;;;;4960396;28;20265;-74
2022/07/23 04:31:37;;;;;;;4.00;3.70;;;25.90;53.10;;;;;;4960343;28;20225;-74
2022/07/23 04:34:04;;;;;;;4.07;3.67;;;25.90;53.20;;;;;;4960546;28;20218;-74
2022/07/23 04:36:32;;;;;;;4.20;3.90;;;25.90;53.30;;;;;;4943750;28;20205;-74
2022/07/23 04:38:59;;;;;;;4.43;4.07;;;25.90;53.20;;;;;;4975724;28;20268;-75
2022/07/23 04:41:26;;;;;;;4.40;3.97;;;25.90;53.20;;;;;;4959178;28;20194;-75
2022/07/23 04:43:54;;;;;;;7.45;4.63;;;25.90;54.10;;;;;;4958641;28;20312;-74
2022/07/23 04:46:21;;;;;;;5.60;4.13;;;25.80;54.60;;;;;;4958049;28;20224;-74
2022/07/23 04:48:52;;;;;;;5.00;4.50;;;25.60;54.70;;;;;;4943096;28;20208;-75
2022/07/23 04:51:20;;;;;;;6.70;4.72;;;25.50;55.30;;;;;;4958415;28;20272;-74
2022/07/23 04:53:47;;;;;;;5.53;4.80;;;25.30;55.20;;;;;;4959418;28;20273;-74
2022/07/23 04:56:14;;;;;;;5.53;5.03;;;25.30;54.90;;;;;;4959255;28;20193;-74
2022/07/23 04:58:41;;;;;;;4.70;4.30;;;25.30;55.70;;;;;;4977049;28;20194;-75
2022/07/23 05:01:10;;;;;;;5.03;4.47;;;25.30;55.90;;;;;;4958618;28;20225;-75
2022/07/23 05:03:38;;;;;;;5.25;4.82;;;25.20;55.70;;;;;;4943610;28;20276;-74
2022/07/23 05:06:07;;;;;;;5.05;4.65;;;25.20;55.80;;;;;;4959297;28;20197;-76
2022/07/23 05:08:34;;;;;;;4.75;4.35;;;25.30;54.90;;;;;;4958388;28;20198;-74
2022/07/23 05:11:01;;;;;;;5.05;4.60;;;25.30;54.40;;;;;;4958874;28;20202;-75
2022/07/23 05:13:30;;;;;;;5.75;4.50;;;25.40;54.60;;;;;;4959192;28;20653;-75
2022/07/23 05:15:57;;;;;;;5.65;4.60;;;25.40;54.70;;;;;;4959242;28;20684;-74
2022/07/23 05:18:25;;;;;;;5.40;4.90;;;25.30;55.00;;;;;;4958766;28;20731;-74
2022/07/23 05:20:52;;;;;;;5.00;4.60;;;25.40;55.10;;;;;;4959252;28;20292;-74
2022/07/23 05:23:24;;;;;;;4.85;4.45;;;25.50;54.90;;;;;;4958837;28;20293;-75
2022/07/23 05:25:51;;;;;;;4.85;4.55;;;25.60;54.60;;;;;;4958286;28;20691;-75
2022/07/23 05:28:19;;;;;;;4.57;4.22;;;25.70;54.10;;;;;;4943104;28;20209;-76
2022/07/23 05:30:46;;;;;;;4.90;4.47;;;25.80;53.80;;;;;;4958646;28;20198;-74
2022/07/23 05:33:18;;;;;;;4.85;4.35;;;25.90;53.60;;;;;;4958647;28;20641;-74
2022/07/23 05:35:45;;;;;;;4.97;4.57;;;26.00;53.50;;;;;;4959403;28;20226;-75
2022/07/23 05:38:34;;;;;;;5.35;4.95;;;26.00;53.40;;;;;;4976077;28;20213;-75
2022/07/23 05:41:03;;;;;;;5.10;4.60;;;26.10;53.40;;;;;;4959242;28;20213;-76
2022/07/23 05:43:30;;;;;;;4.80;4.40;;;26.10;53.30;;;;;;4943045;28;20219;-74
2022/07/23 05:46:01;;;;;;;4.82;4.43;;;26.10;53.40;;;;;;4959134;28;20677;-74
2022/07/23 05:48:28;;;;;;;4.88;4.47;;;26.10;53.50;;;;;;4958358;28;20210;-75
2022/07/23 05:51:10;;;;;;;5.60;5.10;;;26.10;53.50;;;;;;4957959;28;20190;-75
2022/07/23 05:53:39;;;;;;;5.50;4.65;;;26.10;53.40;;;;;;4958872;28;20692;-75
2022/07/23 05:56:21;;;;;;;4.90;4.45;;;26.20;53.40;;;;;;4959200;28;20204;-74
2022/07/23 05:58:48;;;;;;;4.78;4.38;;;26.20;53.30;;;;;;4961377;28;20297;-74
2022/07/23 06:01:17;;;;;;;4.60;4.20;;;26.20;53.20;;;;;;4961740;28;20256;-74
2022/07/23 06:03:55;;;;;;;5.43;4.90;;;26.20;53.10;;;;;;4961900;28;20222;-76
2022/07/23 06:06:26;;;;;;;5.15;4.70;;;26.20;53.20;;;;;;4961861;28;20572;-75
2022/07/23 06:08:54;;;;;;;5.25;4.75;;;26.20;53.10;;;;;;4961363;28;20198;-74
2022/07/23 06:11:23;;;;;;;5.13;4.72;;;26.20;52.90;;;;;;4961977;28;20206;-74
2022/07/23 06:13:50;;;;;;;5.10;4.63;;;26.20;52.90;;;;;;4965429;28;20222;-74
2022/07/23 06:16:19;;;;;;;5.30;4.65;;;26.30;52.70;;;;;;4948902;28;20197;-74
2022/07/23 06:18:46;;;;;;;5.20;4.80;;;26.30;52.80;;;;;;4962770;28;20245;-74
2022/07/23 06:21:15;;;;;;;5.25;4.72;;;26.30;52.50;;;;;;4967373;28;20201;-74
2022/07/23 06:23:42;;;;;;;5.57;4.85;;;26.30;52.40;;;;;;4963098;28;20268;-74
2022/07/23 06:26:10;;;;;;;4.95;4.45;;;26.40;52.40;;;;;;4962627;28;20209;-73
2022/07/23 06:28:38;;;;;;;5.22;4.72;;;26.50;52.40;;;;;;4946286;28;20301;-75
2022/07/23 06:31:06;;;;;;;5.47;4.45;;;26.70;52.00;;;;;;4962397;28;20297;-76
2022/07/23 06:33:33;;;;;;;4.50;4.13;;;26.90;51.60;;;;;;4962583;28;20229;-74
2022/07/23 06:36:00;;;;;;;4.75;4.38;;;27.10;51.00;;;;;;4961912;28;20198;-75
2022/07/23 06:38:27;;;;;;;5.05;4.45;;;27.30;50.80;;;;;;4962194;28;20281;-75
2022/07/23 06:40:55;;;;;;;4.78;4.40;;;27.50;50.40;;;;;;4961814;28;20205;-74
2022/07/23 06:43:23;;;;;;;4.45;4.07;;;27.60;50.10;;;;;;4960872;28;20249;-74
2022/07/23 06:45:55;;;;;;;5.07;4.47;;;27.60;50.00;;;;;;4961016;28;20189;-74
2022/07/23 06:48:23;;;;;;;4.60;4.20;;;27.60;50.00;;;;;;4960756;28;20209;-74
2022/07/23 06:50:52;;;;;;;4.50;4.10;;;27.50;50.10;;;;;;4960980;28;20198;-75
2022/07/23 06:53:23;;;;;;;4.53;4.13;;;27.50;50.20;;;;;;4945378;28;20308;-75
2022/07/23 06:55:51;;;;;;;4.93;4.43;;;27.50;50.40;;;;;;4961943;28;20244;-73
2022/07/23 06:58:19;;;;;;;4.75;4.35;;;27.50;50.40;;;;;;4959759;28;20194;-73
2022/07/23 07:00:47;;;;;;;4.97;4.57;;;27.40;50.30;;;;;;4959841;28;20194;-73
2022/07/23 07:03:15;;;;;;;4.95;4.55;;;27.50;50.40;;;;;;4959867;28;20218;-73
2022/07/23 07:05:42;;;;;;;4.95;4.53;;;27.40;50.30;;;;;;4959848;28;20201;-73
2022/07/23 07:08:10;;;;;;;6.10;4.80;;;27.40;50.30;;;;;;4959445;28;20198;-75
2022/07/23 07:10:37;;;;;;;4.93;4.53;;;27.40;50.40;;;;;;4960009;28;20208;-73
2022/07/23 07:13:04;;;;;;;6.20;4.90;;;27.40;50.40;;;;;;4959616;28;20763;-73
2022/07/23 07:15:32;;;;;;;4.95;4.55;;;27.40;50.50;;;;;;4959800;28;20652;-73
2022/07/23 07:18:00;;;;;;;4.82;4.28;;;27.30;50.50;;;;;;4959479;28;20205;-73
2022/07/23 07:20:27;;;;;;;5.88;4.85;;;27.30;50.50;;;;;;4959616;28;20201;-75
2022/07/23 07:22:54;;;;;;;5.32;4.82;;;27.30;50.60;;;;;;4959264;28;20280;-73
2022/07/23 07:25:22;;;;;;;5.07;4.60;;;27.30;50.50;;;;;;4959836;28;20182;-73
2022/07/23 07:27:49;;;;;;;5.35;4.85;;;27.20;50.60;;;;;;4958868;28;20206;-73
2022/07/23 07:30:16;;;;;;;5.05;4.53;;;27.30;50.60;;;;;;4959446;28;20562;-74
2022/07/23 07:32:43;;;;;;;4.70;4.30;;;27.30;50.60;;;;;;4976099;28;20221;-73
2022/07/23 07:35:12;;;;;;;4.65;4.25;;;27.20;50.60;;;;;;4959381;28;20213;-73
2022/07/23 07:37:39;;;;;;;5.03;4.55;;;27.20;50.60;;;;;;4959049;28;20201;-74
2022/07/23 07:40:07;;;;;;;4.68;4.28;;;27.20;50.60;;;;;;4958882;28;20204;-73
2022/07/23 07:42:34;;;;;;;5.35;4.63;;;27.20;50.70;;;;;;4958928;28;20339;-73
2022/07/23 07:45:02;;;;;;;5.10;4.60;;;27.20;50.60;;;;;;4958729;28;20282;-74
2022/07/23 07:47:29;;;;;;;6.05;5.15;;;27.20;50.60;;;;;;4958628;28;20271;-75
2022/07/23 07:49:56;;;;;;;5.60;4.70;;;27.20;50.60;;;;;;4958577;28;20194;-74
2022/07/23 07:52:25;;;;;;;5.38;4.88;;;27.20;50.60;;;;;;4975965;28;20205;-74
2022/07/23 07:54:51;;;;;;;4.85;4.45;;;27.30;50.40;;;;;;4958747;28;20209;-75
2022/07/23 07:57:19;;;;;;;5.20;4.70;;;27.40;50.20;;;;;;4942785;28;20648;-73
2022/07/23 07:59:46;;;;;;;5.35;4.85;;;27.70;50.10;;;;;;4958498;28;20651;-75
2022/07/23 08:02:13;;;;;;;5.38;4.88;;;27.80;49.80;;;;;;4958582;28;20600;-73
2022/07/23 08:04:40;;;;;;;5.50;4.97;;;28.00;49.50;;;;;;4958729;28;20206;-75
2022/07/23 08:07:07;;;;;;;4.97;4.50;;;28.00;49.30;;;;;;4958360;28;20194;-74
2022/07/23 08:09:36;;;;;;;4.95;4.55;;;28.10;49.80;;;;;;4958591;28;20644;-74
2022/07/23 08:12:03;;;;;;;5.05;4.65;;;28.20;49.00;;;;;;4958199;28;20216;-74
2022/07/23 08:14:30;;;;;;;5.10;4.70;;;28.40;48.70;;;;;;4942280;28;20715;-75
2022/07/23 08:16:57;;;;;;;5.63;4.50;;;28.40;48.50;;;;;;4958498;28;20660;-73
2022/07/23 08:19:24;;;;;;;5.05;4.60;;;28.50;48.50;;;;;;4957576;28;20648;-73
2022/07/23 08:21:52;;;;;;;4.78;4.38;;;28.50;48.30;;;;;;4975497;28;20189;-74
2022/07/23 08:24:19;;;;;;;4.85;4.45;;;28.50;48.30;;;;;;4958146;28;20722;-74
2022/07/23 08:26:47;;;;;;;4.53;4.20;;;28.40;48.40;;;;;;4958016;28;20197;-75
2022/07/23 08:29:14;;;;;;;4.80;4.40;;;28.30;48.70;;;;;;4957978;28;20212;-75
2022/07/23 08:31:42;;;;;;;4.78;4.35;;;28.30;48.80;;;;;;4975360;28;20201;-74
2022/07/23 08:34:09;;;;;;;4.88;4.47;;;28.20;49.00;;;;;;4957904;28;20232;-75
2022/07/23 08:36:36;;;;;;;5.30;4.80;;;28.10;49.10;;;;;;4957982;28;20198;-73
2022/07/23 08:39:04;;;;;;;4.93;4.55;;;28.10;49.40;;;;;;4958071;28;20197;-75
2022/07/23 08:41:31;;;;;;;5.30;4.80;;;28.00;49.50;;;;;;4958079;28;20200;-73
2022/07/23 08:44:00;;;;;;;4.68;4.28;;;28.00;49.60;;;;;;4958208;28;20715;-73
2022/07/23 08:46:27;;;;;;;5.40;4.90;;;27.90;49.70;;;;;;4975227;28;20189;-74
2022/07/23 08:48:55;;;;;;;5.35;4.95;;;27.90;49.80;;;;;;4957727;28;20703;-74
2022/07/23 08:51:24;;;;;;;5.50;4.65;;;27.90;49.80;;;;;;4958255;28;20198;-73
2022/07/23 08:53:52;;;;;;;4.88;4.43;;;28.00;49.70;;;;;;4957668;28;20319;-75
2022/07/23 08:56:19;;;;;;;4.88;4.47;;;28.10;49.50;;;;;;4957837;28;20297;-74
2022/07/23 08:58:46;;;;;;;5.05;4.65;;;28.10;49.20;;;;;;4957968;28;20288;-74
2022/07/23 09:01:15;;;;;;;4.75;4.35;;;28.30;48.70;;;;;;4957951;28;20224;-73
2022/07/23 09:04:04;;;;;;;5.00;4.60;;;28.50;48.30;;;;;;4975163;28;20220;-73
2022/07/23 09:06:31;;;;;;;4.38;4.03;;;28.70;47.90;;;;;;4957639;28;20205;-73
2022/07/23 09:08:58;;;;;;;4.65;4.25;;;28.80;47.60;;;;;;4957515;28;20240;-76
2022/07/23 09:11:25;;;;;;;4.88;4.47;;;28.80;47.50;;;;;;4957620;28;20248;-74
2022/07/23 09:13:53;;;;;;;5.00;4.60;;;28.90;47.50;;;;;;4957647;28;20247;-74
2022/07/23 09:16:27;;;;;;;4.90;4.45;;;28.90;47.40;;;;;;4957912;28;20205;-75
2022/07/23 09:18:55;;;;;;;4.70;4.30;;;28.90;47.50;;;;;;4958134;28;20579;-74
2022/07/23 09:21:24;;;;;;;4.60;4.30;;;28.90;47.30;;;;;;4958249;28;20198;-73
2022/07/23 09:23:54;;;;;;;4.93;4.53;;;29.10;47.10;;;;;;4958772;28;20217;-74
2022/07/23 09:26:32;;;;;;;4.82;4.43;;;29.10;47.30;;;;;;4959830;28;20220;-75
2022/07/23 09:29:01;;;;;;;4.85;4.45;;;29.20;46.90;;;;;;4958183;28;20569;-74
2022/07/23 09:31:35;;;;;;;4.45;4.10;;;29.30;46.70;;;;;;4959794;28;20337;-73
2022/07/23 09:34:09;;;;;;;4.70;4.30;;;29.40;46.20;;;;;;4961442;28;20229;-75
2022/07/23 09:36:36;;;;;;;4.65;4.25;;;29.50;46.20;;;;;;4961553;28;20198;-75
2022/07/23 09:39:03;;;;;;;4.45;4.13;;;29.50;46.20;;;;;;4961774;28;20202;-75
2022/07/23 09:41:35;;;;;;;4.40;4.07;;;29.60;46.40;;;;;;4961825;28;20205;-74
2022/07/23 09:44:11;;;;;;;4.68;4.28;;;29.60;46.20;;;;;;4961700;28;20217;-73
2022/07/23 09:46:40;;;;;;;4.63;4.22;;;29.60;45.90;;;;;;4961506;28;20248;-75
2022/07/23 09:49:14;;;;;;;5.03;4.60;;;29.60;46.10;;;;;;4974962;28;20192;-74
2022/07/23 09:51:48;;;;;;;4.60;4.20;;;29.60;46.00;;;;;;4992803;28;20186;-72
2022/07/23 09:54:31;;;;;;;4.55;4.15;;;29.70;46.10;;;;;;4962063;28;20309;-74
2022/07/23 09:56:59;;;;;;;4.32;3.92;;;29.70;46.00;;;;;;4960839;28;20292;-73
2022/07/23 09:59:27;;;;;;;4.25;3.85;;;29.70;45.90;;;;;;4961026;28;20194;-73
2022/07/23 10:01:59;;;;;;;4.47;4.18;;;29.70;45.80;;;;;;4960841;28;20291;-73
2022/07/23 10:04:27;;;;;;;4.18;3.88;;;29.70;46.50;;;;;;4960679;28;20218;-74
2022/07/23 10:07:15;;;;;;;4.72;4.32;;;29.70;45.90;;;;;;4961001;28;20181;-74
2022/07/23 10:10:00;;;;;;;4.45;4.07;;;29.70;45.80;;;;;;4978258;28;20208;-74
2022/07/23 10:15:43;;;;;;;4.30;4.00;;;29.60;46.50;;;;;;4960634;28;20209;-74
2022/07/23 10:18:12;;;;;;;4.85;4.45;;;29.50;45.90;;;;;;4960433;28;20202;-72
2022/07/23 10:20:39;;;;;;;4.22;3.92;;;29.40;46.10;;;;;;4961367;28;20208;-73
2022/07/23 10:23:11;;;;;;;4.43;4.03;;;29.40;46.40;;;;;;4977709;28;20209;-75
2022/07/23 10:25:41;;;;;;;4.63;4.22;;;29.30;46.40;;;;;;4961047;28;20256;-76
2022/07/23 10:28:31;;;;;;;4.80;4.40;;;29.20;46.60;;;;;;4945030;28;20236;-75
2022/07/23 10:31:03;;;;;;;4.13;3.83;;;29.20;46.90;;;;;;4960312;28;20205;-75
2022/07/23 10:33:39;;;;;;;4.30;4.00;;;29.10;47.50;;;;;;4960063;28;20220;-73
2022/07/23 10:36:10;;;;;;;4.60;4.20;;;29.00;47.10;;;;;;4960526;28;20207;-73
2022/07/23 10:38:41;;;;;;;4.40;4.03;;;29.00;47.10;;;;;;4977756;28;20177;-74
2022/07/23 10:41:09;;;;;;;4.57;4.18;;;29.00;47.40;;;;;;4960268;28;20198;-75
2022/07/23 10:43:36;;;;;;;4.22;3.92;;;28.90;47.50;;;;;;4959393;28;20224;-74
2022/07/23 10:46:28;;;;;;;4.28;3.97;;;28.90;47.60;;;;;;4977535;28;20188;-73
2022/07/23 10:49:25;;;;;;;4.20;3.90;;;28.80;47.60;;;;;;4953254;28;20213;-74
2022/07/23 10:52:18;;;;;;;4.28;3.97;;;28.80;47.80;;;;;;4971424;28;20264;-76
2022/07/23 10:54:49;;;;;;;4.40;4.10;;;28.70;47.90;;;;;;4960014;28;20240;-75
2022/07/23 10:57:16;;;;;;;4.00;3.70;;;28.70;47.90;;;;;;4959855;28;20396;-73
2022/07/23 11:00:25;;;;;;;4.18;3.88;;;28.70;47.90;;;;;;4959411;28;20194;-74
2022/07/23 11:02:53;;;;;;;4.18;3.85;;;28.60;48.00;;;;;;4959505;28;20276;-72
2022/07/23 11:05:23;;;;;;;4.05;3.75;;;28.60;48.20;;;;;;4959428;28;20198;-76
2022/07/23 11:08:16;;;;;;;4.28;3.92;;;28.50;48.30;;;;;;4959935;28;20231;-73
2022/07/23 11:10:45;;;;;;;4.38;4.00;;;28.50;48.40;;;;;;4977486;28;20232;-74
2022/07/23 11:13:32;;;;;;;4.40;4.10;;;28.50;48.40;;;;;;4959594;28;20563;-73
2022/07/23 11:16:14;;;;;;;4.00;3.72;;;28.50;48.40;;;;;;4959967;28;20260;-75
2022/07/23 11:19:07;;;;;;;4.28;3.88;;;28.50;48.40;;;;;;4959866;28;20236;-73
2022/07/23 11:21:49;;;;;;;3.85;3.55;;;28.50;48.40;;;;;;4959854;28;20293;-73
2022/07/23 11:24:20;;;;;;;3.97;3.67;;;28.50;48.40;;;;;;4959455;28;20217;-73
2022/07/23 11:26:53;;;;;;;4.18;3.85;;;28.50;48.40;;;;;;4959327;28;20197;-74
2022/07/23 11:29:43;;;;;;;4.20;3.90;;;28.50;48.40;;;;;;4959079;28;20215;-75
2022/07/23 11:32:35;;;;;;;4.05;3.75;;;28.60;48.30;;;;;;4959305;28;20197;-74
2022/07/23 11:35:02;;;;;;;4.25;3.85;;;28.60;48.10;;;;;;4957906;28;20248;-73
2022/07/23 11:37:35;;;;;;;4.13;3.83;;;28.80;47.90;;;;;;4959882;28;20660;-74
2022/07/23 11:40:04;;;;;;;4.10;3.70;;;28.80;47.70;;;;;;4959939;28;20215;-74
2022/07/23 11:42:31;;;;;;;4.20;3.90;;;28.90;47.60;;;;;;4960091;28;20206;-76
2022/07/23 11:44:58;;;;;;;4.00;3.70;;;28.90;47.40;;;;;;4944246;28;20185;-74
2022/07/23 11:47:26;;;;;;;4.15;3.85;;;29.00;47.40;;;;;;4977567;28;20189;-75
2022/07/23 11:49:54;;;;;;;4.32;3.92;;;29.00;47.50;;;;;;4961314;28;20185;-74
2022/07/23 11:52:21;;;;;;;4.68;4.25;;;29.00;47.50;;;;;;4963362;28;20326;-72
2022/07/23 11:54:50;;;;;;;5.05;4.30;;;29.00;47.60;;;;;;4961762;28;20217;-74
2022/07/23 11:57:18;;;;;;;5.15;4.65;;;29.00;48.00;;;;;;4959902;28;20198;-75
2022/07/23 11:59:46;;;;;;;4.93;4.53;;;29.00;47.80;;;;;;4959962;28;20206;-73
2022/07/23 12:02:13;;;;;;;5.47;4.22;;;29.00;48.10;;;;;;4976593;28;20189;-75
2022/07/23 12:04:40;;;;;;;5.45;5.00;;;28.90;48.10;;;;;;4960255;28;20203;-74
2022/07/23 12:07:26;;;;;;;5.07;4.65;;;29.00;48.40;;;;;;4959245;28;20292;-75
2022/07/23 12:09:54;;;;;;;5.35;4.85;;;28.90;48.20;;;;;;4959482;28;20213;-76
2022/07/23 12:12:22;;;;;;;5.13;4.65;;;28.80;47.80;;;;;;4959308;28;20660;-73
2022/07/23 12:14:50;;;;;;;5.30;4.78;;;28.80;47.70;;;;;;4959634;28;20225;-76
2022/07/23 12:17:17;;;;;;;5.68;5.18;;;28.90;48.70;;;;;;4959812;28;20197;-74
2022/07/23 12:19:45;;;;;;;6.35;5.80;;;28.80;47.30;;;;;;4959335;28;20208;-76
2022/07/23 12:22:12;;;;;;;5.60;5.10;;;28.60;46.70;;;;;;4959368;28;20205;-75
2022/07/23 12:25:04;;;;;;;5.57;5.07;;;28.60;47.10;;;;;;4944816;28;20194;-75
2022/07/23 12:27:31;;;;;;;5.93;5.43;;;28.60;48.50;;;;;;4957325;28;20221;-76
2022/07/23 12:29:58;;;;;;;6.03;5.53;;;28.60;47.80;;;;;;4960975;28;20695;-74
2022/07/23 12:32:26;;;;;;;5.70;5.20;;;28.60;47.90;;;;;;4961989;28;20652;-74
2022/07/23 12:35:04;;;;;;;5.60;5.10;;;28.50;47.50;;;;;;4960559;28;20213;-74
2022/07/23 12:37:32;;;;;;;6.03;5.40;;;28.50;47.80;;;;;;4959976;28;20208;-75
2022/07/23 12:39:59;;;;;;;6.15;5.57;;;28.60;48.20;;;;;;4961257;28;20715;-75
2022/07/23 12:42:30;;;;;;;6.03;5.40;;;28.60;48.20;;;;;;4962595;28;20668;-75
2022/07/23 12:45:08;;;;;;;5.88;5.38;;;28.50;47.50;;;;;;4946974;28;20571;-75
2022/07/23 12:47:55;;;;;;;5.90;5.40;;;28.50;48.40;;;;;;4946112;28;20209;-73
2022/07/23 12:50:40;;;;;;;5.95;5.35;;;28.40;47.80;;;;;;4962983;28;20700;-75
2022/07/23 12:53:09;;;;;;;5.18;4.68;;;28.40;47.70;;;;;;4960812;28;20225;-76
2022/07/23 12:55:36;;;;;;;5.50;5.10;;;28.40;47.70;;;;;;4944144;28;20217;-74
2022/07/23 12:58:06;;;;;;;6.13;5.63;;;28.40;47.70;;;;;;4959517;28;20285;-75
2022/07/23 13:00:35;;;;;;;5.90;5.40;;;28.40;47.70;;;;;;4959790;28;20192;-76
2022/07/23 13:03:02;;;;;;;5.43;5.03;;;28.40;47.80;;;;;;4958007;28;20222;-76